sensor_id;sensor_type;location;lat;lon;timestamp;P1;durP1;ratioP1;P2;durP2;ratioP2
74059;SDS011;62414;53.436;8.828;2023-09-30T00:02:20;16.83;;;2.50;;
74059;SDS011;62414;53.436;8.828;2023-09-30T00:04:45;16.97;;;3.17;;
74059;SDS011;62414;53.436;8.828;2023-09-30T00:07:11;13.90;;;2.92;;
74059;SDS011;62414;53.436;8.828;2023-09-30T00:09:36;18.27;;;3.33;;
74059;SDS011;62414;53.436;8.828;2023-09-30T00:12:03;16.37;;;2.80;;
74059;SDS011;62414;53.436;8.828;2023-09-30T00:14:29;17.38;;;3.10;;
74059;SDS011;62414;53.436;8.828;2023-09-30T00:16:54;19.23;;;3.17;;
74059;SDS011;62414;53.436;8.828;2023-09-30T00:19:20;19.10;;;3.20;;
74059;SDS011;62414;53.436;8.828;2023-09-30T00:21:45;20.97;;;3.40;;
74059;SDS011;62414;53.436;8.828;2023-09-30T00:24:11;17.50;;;2.88;;
74059;SDS011;62414;53.436;8.828;2023-09-30T00:26:36;16.73;;;3.10;;
74059;SDS011;62414;53.436;8.828;2023-09-30T00:29:03;21.77;;;3.07;;
74059;SDS011;62414;53.436;8.828;2023-09-30T00:31:28;18.15;;;2.83;;
74059;SDS011;62414;53.436;8.828;2023-09-30T00:33:54;14.83;;;2.70;;
74059;SDS011;62414;53.436;8.828;2023-09-30T00:36:19;15.80;;;3.47;;
74059;SDS011;62414;53.436;8.828;2023-09-30T00:38:45;14.90;;;2.78;;
74059;SDS011;62414;53.436;8.828;2023-09-30T00:41:10;19.83;;;3.30;;
74059;SDS011;62414;53.436;8.828;2023-09-30T00:43:35;16.70;;;3.60;;
74059;SDS011;62414;53.436;8.828;2023-09-30T00:46:04;19.07;;;2.90;;
74059;SDS011;62414;53.436;8.828;2023-09-30T00:48:33;13.48;;;2.63;;
74059;SDS011;62414;53.436;8.828;2023-09-30T00:50:59;14.90;;;3.08;;
74059;SDS011;62414;53.436;8.828;2023-09-30T00:53:24;20.47;;;3.33;;
74059;SDS011;62414;53.436;8.828;2023-09-30T00:55:50;13.47;;;2.50;;
74059;SDS011;62414;53.436;8.828;2023-09-30T00:58:16;18.67;;;3.20;;
74059;SDS011;62414;53.436;8.828;2023-09-30T01:00:41;17.20;;;2.90;;
74059;SDS011;62414;53.436;8.828;2023-09-30T01:03:09;23.08;;;3.33;;
74059;SDS011;62414;53.436;8.828;2023-09-30T01:05:35;14.97;;;3.20;;
74059;SDS011;62414;53.436;8.828;2023-09-30T01:08:01;18.73;;;3.40;;
74059;SDS011;62414;53.436;8.828;2023-09-30T01:10:26;16.45;;;2.92;;
74059;SDS011;62414;53.436;8.828;2023-09-30T01:12:52;17.43;;;3.50;;
74059;SDS011;62414;53.436;8.828;2023-09-30T01:15:17;16.17;;;3.13;;
74059;SDS011;62414;53.436;8.828;2023-09-30T01:17:43;17.33;;;3.05;;
74059;SDS011;62414;53.436;8.828;2023-09-30T01:20:10;15.83;;;3.27;;
74059;SDS011;62414;53.436;8.828;2023-09-30T01:22:38;20.52;;;3.58;;
74059;SDS011;62414;53.436;8.828;2023-09-30T01:25:04;21.83;;;3.45;;
74059;SDS011;62414;53.436;8.828;2023-09-30T01:27:31;19.70;;;3.30;;
74059;SDS011;62414;53.436;8.828;2023-09-30T01:29:57;15.20;;;3.55;;
74059;SDS011;62414;53.436;8.828;2023-09-30T01:32:22;18.20;;;3.60;;
74059;SDS011;62414;53.436;8.828;2023-09-30T01:34:47;21.73;;;3.97;;
74059;SDS011;62414;53.436;8.828;2023-09-30T01:37:13;17.23;;;3.67;;
74059;SDS011;62414;53.436;8.828;2023-09-30T01:39:40;21.27;;;3.72;;
74059;SDS011;62414;53.436;8.828;2023-09-30T01:42:05;20.00;;;4.00;;
74059;SDS011;62414;53.436;8.828;2023-09-30T01:44:32;22.13;;;3.90;;
74059;SDS011;62414;53.436;8.828;2023-09-30T01:46:57;20.00;;;3.80;;
74059;SDS011;62414;53.436;8.828;2023-09-30T01:49:23;26.70;;;4.00;;
74059;SDS011;62414;53.436;8.828;2023-09-30T01:51:48;19.97;;;3.80;;
74059;SDS011;62414;53.436;8.828;2023-09-30T01:54:14;18.27;;;4.30;;
74059;SDS011;62414;53.436;8.828;2023-09-30T01:56:40;18.70;;;3.97;;
74059;SDS011;62414;53.436;8.828;2023-09-30T01:59:06;17.43;;;4.00;;
74059;SDS011;62414;53.436;8.828;2023-09-30T02:01:31;15.45;;;3.95;;
74059;SDS011;62414;53.436;8.828;2023-09-30T02:03:57;17.27;;;4.03;;
74059;SDS011;62414;53.436;8.828;2023-09-30T02:06:22;18.50;;;3.70;;
74059;SDS011;62414;53.436;8.828;2023-09-30T02:08:48;20.40;;;4.22;;
74059;SDS011;62414;53.436;8.828;2023-09-30T02:11:13;22.33;;;4.33;;
74059;SDS011;62414;53.436;8.828;2023-09-30T02:13:40;21.23;;;4.10;;
74059;SDS011;62414;53.436;8.828;2023-09-30T02:16:05;17.00;;;3.67;;
74059;SDS011;62414;53.436;8.828;2023-09-30T02:18:36;17.33;;;4.45;;
74059;SDS011;62414;53.436;8.828;2023-09-30T02:21:02;18.67;;;4.13;;
74059;SDS011;62414;53.436;8.828;2023-09-30T02:23:27;22.53;;;4.17;;
74059;SDS011;62414;53.436;8.828;2023-09-30T02:25:53;21.95;;;4.28;;
74059;SDS011;62414;53.436;8.828;2023-09-30T02:28:18;18.23;;;4.33;;
74059;SDS011;62414;53.436;8.828;2023-09-30T02:30:45;21.13;;;4.22;;
74059;SDS011;62414;53.436;8.828;2023-09-30T02:33:11;21.77;;;4.43;;
74059;SDS011;62414;53.436;8.828;2023-09-30T02:35:36;21.13;;;4.38;;
74059;SDS011;62414;53.436;8.828;2023-09-30T02:38:02;17.97;;;4.20;;
74059;SDS011;62414;53.436;8.828;2023-09-30T02:40:27;20.00;;;4.10;;
74059;SDS011;62414;53.436;8.828;2023-09-30T02:42:53;17.30;;;4.32;;
74059;SDS011;62414;53.436;8.828;2023-09-30T02:45:18;17.17;;;3.90;;
74059;SDS011;62414;53.436;8.828;2023-09-30T02:47:45;18.67;;;4.17;;
74059;SDS011;62414;53.436;8.828;2023-09-30T02:50:11;16.58;;;4.20;;
74059;SDS011;62414;53.436;8.828;2023-09-30T02:52:36;22.17;;;4.72;;
74059;SDS011;62414;53.436;8.828;2023-09-30T02:55:03;20.83;;;4.43;;
74059;SDS011;62414;53.436;8.828;2023-09-30T02:57:28;19.80;;;4.37;;
74059;SDS011;62414;53.436;8.828;2023-09-30T02:59:54;18.52;;;4.72;;
74059;SDS011;62414;53.436;8.828;2023-09-30T03:02:19;19.33;;;4.87;;
74059;SDS011;62414;53.436;8.828;2023-09-30T03:04:46;24.37;;;4.50;;
74059;SDS011;62414;53.436;8.828;2023-09-30T03:07:12;18.73;;;4.45;;
74059;SDS011;62414;53.436;8.828;2023-09-30T03:09:38;24.35;;;4.95;;
74059;SDS011;62414;53.436;8.828;2023-09-30T03:12:03;23.80;;;4.80;;
74059;SDS011;62414;53.436;8.828;2023-09-30T03:14:29;20.63;;;4.88;;
74059;SDS011;62414;53.436;8.828;2023-09-30T03:16:55;24.30;;;4.73;;
74059;SDS011;62414;53.436;8.828;2023-09-30T03:19:20;21.20;;;5.03;;
74059;SDS011;62414;53.436;8.828;2023-09-30T03:21:47;24.52;;;4.70;;
74059;SDS011;62414;53.436;8.828;2023-09-30T03:24:12;17.40;;;4.25;;
74059;SDS011;62414;53.436;8.828;2023-09-30T03:26:38;16.40;;;4.40;;
74059;SDS011;62414;53.436;8.828;2023-09-30T03:29:03;21.80;;;4.87;;
74059;SDS011;62414;53.436;8.828;2023-09-30T03:31:29;20.33;;;5.17;;
74059;SDS011;62414;53.436;8.828;2023-09-30T03:33:54;20.63;;;4.30;;
74059;SDS011;62414;53.436;8.828;2023-09-30T03:36:20;18.30;;;4.70;;
74059;SDS011;62414;53.436;8.828;2023-09-30T03:38:46;17.33;;;4.90;;
74059;SDS011;62414;53.436;8.828;2023-09-30T03:41:12;19.60;;;4.63;;
74059;SDS011;62414;53.436;8.828;2023-09-30T03:43:37;18.40;;;4.90;;
74059;SDS011;62414;53.436;8.828;2023-09-30T03:46:03;18.50;;;5.10;;
74059;SDS011;62414;53.436;8.828;2023-09-30T03:48:28;19.97;;;4.27;;
74059;SDS011;62414;53.436;8.828;2023-09-30T03:50:53;17.77;;;4.67;;
74059;SDS011;62414;53.436;8.828;2023-09-30T03:53:19;20.57;;;4.70;;
74059;SDS011;62414;53.436;8.828;2023-09-30T03:55:46;23.77;;;5.37;;
74059;SDS011;62414;53.436;8.828;2023-09-30T03:58:11;20.70;;;4.72;;
74059;SDS011;62414;53.436;8.828;2023-09-30T04:00:37;21.30;;;4.73;;
74059;SDS011;62414;53.436;8.828;2023-09-30T04:03:02;19.10;;;5.30;;
74059;SDS011;62414;53.436;8.828;2023-09-30T04:05:28;19.90;;;4.90;;
74059;SDS011;62414;53.436;8.828;2023-09-30T04:07:53;22.70;;;4.50;;
74059;SDS011;62414;53.436;8.828;2023-09-30T04:10:19;20.38;;;5.30;;
74059;SDS011;62414;53.436;8.828;2023-09-30T04:12:46;20.30;;;4.73;;
74059;SDS011;62414;53.436;8.828;2023-09-30T04:15:11;20.05;;;4.75;;
74059;SDS011;62414;53.436;8.828;2023-09-30T04:17:36;25.67;;;4.97;;
74059;SDS011;62414;53.436;8.828;2023-09-30T04:20:02;17.07;;;4.87;;
74059;SDS011;62414;53.436;8.828;2023-09-30T04:22:28;18.85;;;4.75;;
74059;SDS011;62414;53.436;8.828;2023-09-30T04:24:53;24.57;;;4.80;;
74059;SDS011;62414;53.436;8.828;2023-09-30T04:27:19;20.50;;;4.97;;
74059;SDS011;62414;53.436;8.828;2023-09-30T04:29:46;15.37;;;4.17;;
74059;SDS011;62414;53.436;8.828;2023-09-30T04:32:11;16.85;;;4.90;;
74059;SDS011;62414;53.436;8.828;2023-09-30T04:34:36;17.10;;;4.50;;
74059;SDS011;62414;53.436;8.828;2023-09-30T04:37:02;15.70;;;4.43;;
74059;SDS011;62414;53.436;8.828;2023-09-30T04:39:27;14.40;;;4.33;;
74059;SDS011;62414;53.436;8.828;2023-09-30T04:41:53;23.00;;;4.78;;
74059;SDS011;62414;53.436;8.828;2023-09-30T04:44:18;18.50;;;4.37;;
74059;SDS011;62414;53.436;8.828;2023-09-30T04:46:45;18.80;;;4.67;;
74059;SDS011;62414;53.436;8.828;2023-09-30T04:49:10;17.35;;;4.13;;
74059;SDS011;62414;53.436;8.828;2023-09-30T04:51:36;18.17;;;4.63;;
74059;SDS011;62414;53.436;8.828;2023-09-30T04:54:01;15.60;;;4.40;;
74059;SDS011;62414;53.436;8.828;2023-09-30T04:56:27;17.55;;;4.57;;
74059;SDS011;62414;53.436;8.828;2023-09-30T04:58:52;17.33;;;4.03;;
74059;SDS011;62414;53.436;8.828;2023-09-30T05:01:18;16.08;;;4.10;;
74059;SDS011;62414;53.436;8.828;2023-09-30T05:03:45;16.97;;;4.67;;
74059;SDS011;62414;53.436;8.828;2023-09-30T05:06:10;20.02;;;4.65;;
74059;SDS011;62414;53.436;8.828;2023-09-30T05:08:36;16.87;;;4.50;;
74059;SDS011;62414;53.436;8.828;2023-09-30T05:11:01;16.53;;;4.40;;
74059;SDS011;62414;53.436;8.828;2023-09-30T05:13:26;20.97;;;4.50;;
74059;SDS011;62414;53.436;8.828;2023-09-30T05:15:52;23.10;;;4.63;;
74059;SDS011;62414;53.436;8.828;2023-09-30T05:18:18;17.57;;;4.47;;
74059;SDS011;62414;53.436;8.828;2023-09-30T05:20:44;20.30;;;5.20;;
74059;SDS011;62414;53.436;8.828;2023-09-30T05:23:10;20.25;;;4.20;;
74059;SDS011;62414;53.436;8.828;2023-09-30T05:25:35;18.90;;;4.35;;
74059;SDS011;62414;53.436;8.828;2023-09-30T05:28:02;18.10;;;4.10;;
74059;SDS011;62414;53.436;8.828;2023-09-30T05:30:28;19.00;;;4.30;;
74059;SDS011;62414;53.436;8.828;2023-09-30T05:32:53;16.37;;;4.20;;
74059;SDS011;62414;53.436;8.828;2023-09-30T05:35:20;16.50;;;3.90;;
74059;SDS011;62414;53.436;8.828;2023-09-30T05:37:46;17.87;;;3.93;;
74059;SDS011;62414;53.436;8.828;2023-09-30T05:40:12;16.13;;;4.05;;
74059;SDS011;62414;53.436;8.828;2023-09-30T05:42:37;17.83;;;4.10;;
74059;SDS011;62414;53.436;8.828;2023-09-30T05:45:03;24.47;;;4.80;;
74059;SDS011;62414;53.436;8.828;2023-09-30T05:47:29;19.05;;;4.38;;
74059;SDS011;62414;53.436;8.828;2023-09-30T05:49:55;20.20;;;3.90;;
74059;SDS011;62414;53.436;8.828;2023-09-30T05:52:20;18.10;;;4.45;;
74059;SDS011;62414;53.436;8.828;2023-09-30T05:54:47;17.30;;;4.10;;
74059;SDS011;62414;53.436;8.828;2023-09-30T05:57:12;17.05;;;4.28;;
74059;SDS011;62414;53.436;8.828;2023-09-30T05:59:38;18.97;;;4.43;;
74059;SDS011;62414;53.436;8.828;2023-09-30T06:02:03;16.40;;;4.60;;
74059;SDS011;62414;53.436;8.828;2023-09-30T06:04:28;21.63;;;4.70;;
74059;SDS011;62414;53.436;8.828;2023-09-30T06:06:54;18.67;;;4.70;;
74059;SDS011;62414;53.436;8.828;2023-09-30T06:09:19;20.97;;;4.27;;
74059;SDS011;62414;53.436;8.828;2023-09-30T06:11:46;13.87;;;3.87;;
74059;SDS011;62414;53.436;8.828;2023-09-30T06:14:11;14.27;;;3.65;;
74059;SDS011;62414;53.436;8.828;2023-09-30T06:16:37;15.83;;;4.30;;
74059;SDS011;62414;53.436;8.828;2023-09-30T06:19:02;12.90;;;3.88;;
74059;SDS011;62414;53.436;8.828;2023-09-30T06:21:28;17.40;;;4.50;;
74059;SDS011;62414;53.436;8.828;2023-09-30T06:23:53;18.43;;;4.57;;
74059;SDS011;62414;53.436;8.828;2023-09-30T06:26:19;19.17;;;4.15;;
74059;SDS011;62414;53.436;8.828;2023-09-30T06:28:45;18.53;;;4.33;;
74059;SDS011;62414;53.436;8.828;2023-09-30T06:31:11;15.60;;;3.80;;
74059;SDS011;62414;53.436;8.828;2023-09-30T06:33:37;15.33;;;4.27;;
74059;SDS011;62414;53.436;8.828;2023-09-30T06:36:07;17.27;;;4.35;;
74059;SDS011;62414;53.436;8.828;2023-09-30T06:38:33;17.45;;;4.53;;
74059;SDS011;62414;53.436;8.828;2023-09-30T06:40:58;17.87;;;3.97;;
74059;SDS011;62414;53.436;8.828;2023-09-30T06:43:24;16.80;;;4.27;;
74059;SDS011;62414;53.436;8.828;2023-09-30T06:45:51;16.33;;;4.10;;
74059;SDS011;62414;53.436;8.828;2023-09-30T06:48:16;18.43;;;4.23;;
74059;SDS011;62414;53.436;8.828;2023-09-30T06:50:43;15.77;;;4.53;;
74059;SDS011;62414;53.436;8.828;2023-09-30T06:53:09;19.15;;;4.68;;
74059;SDS011;62414;53.436;8.828;2023-09-30T06:55:34;17.07;;;4.33;;
74059;SDS011;62414;53.436;8.828;2023-09-30T06:58:01;14.18;;;4.20;;
74059;SDS011;62414;53.436;8.828;2023-09-30T07:00:27;15.00;;;3.97;;
74059;SDS011;62414;53.436;8.828;2023-09-30T07:02:54;16.07;;;4.97;;
74059;SDS011;62414;53.436;8.828;2023-09-30T07:05:19;22.13;;;3.78;;
74059;SDS011;62414;53.436;8.828;2023-09-30T07:07:45;11.07;;;3.67;;
74059;SDS011;62414;53.436;8.828;2023-09-30T07:10:10;13.83;;;3.80;;
74059;SDS011;62414;53.436;8.828;2023-09-30T07:12:36;13.48;;;3.50;;
74059;SDS011;62414;53.436;8.828;2023-09-30T07:15:02;12.47;;;3.53;;
74059;SDS011;62414;53.436;8.828;2023-09-30T07:17:27;17.80;;;3.83;;
74059;SDS011;62414;53.436;8.828;2023-09-30T07:19:54;12.63;;;3.77;;
74059;SDS011;62414;53.436;8.828;2023-09-30T07:22:20;18.23;;;3.50;;
74059;SDS011;62414;53.436;8.828;2023-09-30T07:24:45;13.77;;;3.57;;
74059;SDS011;62414;53.436;8.828;2023-09-30T07:27:10;20.57;;;3.70;;
74059;SDS011;62414;53.436;8.828;2023-09-30T07:29:36;12.87;;;3.30;;
74059;SDS011;62414;53.436;8.828;2023-09-30T07:32:01;15.73;;;3.70;;
74059;SDS011;62414;53.436;8.828;2023-09-30T07:34:27;11.77;;;3.40;;
74059;SDS011;62414;53.436;8.828;2023-09-30T07:36:54;16.70;;;4.03;;
74059;SDS011;62414;53.436;8.828;2023-09-30T07:39:19;14.83;;;3.60;;
74059;SDS011;62414;53.436;8.828;2023-09-30T07:41:44;13.90;;;3.60;;
74059;SDS011;62414;53.436;8.828;2023-09-30T07:44:10;15.20;;;3.60;;
74059;SDS011;62414;53.436;8.828;2023-09-30T07:46:35;9.30;;;3.10;;
74059;SDS011;62414;53.436;8.828;2023-09-30T07:49:01;14.17;;;3.83;;
74059;SDS011;62414;53.436;8.828;2023-09-30T07:51:26;10.97;;;3.43;;
74059;SDS011;62414;53.436;8.828;2023-09-30T07:53:53;16.70;;;3.57;;
74059;SDS011;62414;53.436;8.828;2023-09-30T07:56:18;12.35;;;3.28;;
74059;SDS011;62414;53.436;8.828;2023-09-30T07:58:44;13.90;;;3.17;;
74059;SDS011;62414;53.436;8.828;2023-09-30T08:01:09;15.37;;;3.43;;
74059;SDS011;62414;53.436;8.828;2023-09-30T08:03:35;13.97;;;3.47;;
74059;SDS011;62414;53.436;8.828;2023-09-30T08:06:00;15.60;;;3.23;;
74059;SDS011;62414;53.436;8.828;2023-09-30T08:08:25;13.83;;;3.40;;
74059;SDS011;62414;53.436;8.828;2023-09-30T08:10:52;13.82;;;3.40;;
74059;SDS011;62414;53.436;8.828;2023-09-30T08:13:18;14.53;;;3.47;;
74059;SDS011;62414;53.436;8.828;2023-09-30T08:15:43;15.60;;;3.50;;
74059;SDS011;62414;53.436;8.828;2023-09-30T08:18:08;16.50;;;3.57;;
74059;SDS011;62414;53.436;8.828;2023-09-30T08:20:34;16.07;;;3.23;;
74059;SDS011;62414;53.436;8.828;2023-09-30T08:22:59;13.48;;;3.80;;
74059;SDS011;62414;53.436;8.828;2023-09-30T08:25:25;14.00;;;3.53;;
74059;SDS011;62414;53.436;8.828;2023-09-30T08:27:52;10.43;;;3.10;;
74059;SDS011;62414;53.436;8.828;2023-09-30T08:30:17;12.02;;;3.20;;
74059;SDS011;62414;53.436;8.828;2023-09-30T08:32:42;10.77;;;3.13;;
74059;SDS011;62414;53.436;8.828;2023-09-30T08:35:08;14.03;;;3.00;;
74059;SDS011;62414;53.436;8.828;2023-09-30T08:37:34;14.10;;;3.65;;
74059;SDS011;62414;53.436;8.828;2023-09-30T08:40:00;12.43;;;3.23;;
74059;SDS011;62414;53.436;8.828;2023-09-30T08:42:25;12.95;;;3.50;;
74059;SDS011;62414;53.436;8.828;2023-09-30T08:44:53;11.63;;;3.05;;
74059;SDS011;62414;53.436;8.828;2023-09-30T08:47:19;11.80;;;3.20;;
74059;SDS011;62414;53.436;8.828;2023-09-30T08:49:45;13.00;;;3.13;;
74059;SDS011;62414;53.436;8.828;2023-09-30T08:52:11;13.57;;;3.20;;
74059;SDS011;62414;53.436;8.828;2023-09-30T08:54:37;16.87;;;3.47;;
74059;SDS011;62414;53.436;8.828;2023-09-30T08:57:02;10.73;;;3.00;;
74059;SDS011;62414;53.436;8.828;2023-09-30T08:59:28;13.60;;;3.37;;
74059;SDS011;62414;53.436;8.828;2023-09-30T09:01:55;12.00;;;3.00;;
74059;SDS011;62414;53.436;8.828;2023-09-30T09:04:20;10.07;;;3.10;;
74059;SDS011;62414;53.436;8.828;2023-09-30T09:06:46;11.90;;;3.35;;
74059;SDS011;62414;53.436;8.828;2023-09-30T09:09:14;12.83;;;2.63;;
74059;SDS011;62414;53.436;8.828;2023-09-30T09:11:40;10.25;;;2.55;;
74059;SDS011;62414;53.436;8.828;2023-09-30T09:14:06;15.60;;;3.10;;
74059;SDS011;62414;53.436;8.828;2023-09-30T09:16:31;11.50;;;2.80;;
74059;SDS011;62414;53.436;8.828;2023-09-30T09:18:58;12.43;;;2.67;;
74059;SDS011;62414;53.436;8.828;2023-09-30T09:21:23;12.20;;;2.50;;
74059;SDS011;62414;53.436;8.828;2023-09-30T09:23:49;12.47;;;2.50;;
74059;SDS011;62414;53.436;8.828;2023-09-30T09:26:22;9.98;;;2.40;;
74059;SDS011;62414;53.436;8.828;2023-09-30T09:28:49;11.20;;;2.70;;
74059;SDS011;62414;53.436;8.828;2023-09-30T09:31:21;11.57;;;2.40;;
74059;SDS011;62414;53.436;8.828;2023-09-30T09:33:47;11.35;;;2.10;;
74059;SDS011;62414;53.436;8.828;2023-09-30T09:36:14;12.98;;;2.30;;
74059;SDS011;62414;53.436;8.828;2023-09-30T09:38:43;9.67;;;2.20;;
74059;SDS011;62414;53.436;8.828;2023-09-30T09:41:09;12.63;;;2.20;;
74059;SDS011;62414;53.436;8.828;2023-09-30T09:43:34;11.70;;;2.10;;
74059;SDS011;62414;53.436;8.828;2023-09-30T09:46:01;8.50;;;2.17;;
74059;SDS011;62414;53.436;8.828;2023-09-30T09:48:28;10.25;;;1.90;;
74059;SDS011;62414;53.436;8.828;2023-09-30T09:50:53;11.43;;;2.50;;
74059;SDS011;62414;53.436;8.828;2023-09-30T09:53:20;12.05;;;2.05;;
74059;SDS011;62414;53.436;8.828;2023-09-30T09:55:46;9.95;;;2.00;;
74059;SDS011;62414;53.436;8.828;2023-09-30T09:58:12;7.50;;;1.93;;
74059;SDS011;62414;53.436;8.828;2023-09-30T10:00:38;8.90;;;1.88;;
74059;SDS011;62414;53.436;8.828;2023-09-30T10:03:04;10.75;;;2.10;;
74059;SDS011;62414;53.436;8.828;2023-09-30T10:05:29;10.63;;;1.70;;
74059;SDS011;62414;53.436;8.828;2023-09-30T10:07:56;10.40;;;1.92;;
74059;SDS011;62414;53.436;8.828;2023-09-30T10:10:26;10.77;;;1.80;;
74059;SDS011;62414;53.436;8.828;2023-09-30T10:12:52;13.07;;;1.97;;
74059;SDS011;62414;53.436;8.828;2023-09-30T10:15:34;9.93;;;1.70;;
74059;SDS011;62414;53.436;8.828;2023-09-30T10:18:00;9.27;;;1.60;;
74059;SDS011;62414;53.436;8.828;2023-09-30T10:20:27;12.07;;;2.15;;
74059;SDS011;62414;53.436;8.828;2023-09-30T10:25:47;11.98;;;1.98;;
74059;SDS011;62414;53.436;8.828;2023-09-30T10:31:07;15.63;;;2.07;;
74059;SDS011;62414;53.436;8.828;2023-09-30T10:33:34;7.90;;;1.63;;
74059;SDS011;62414;53.436;8.828;2023-09-30T10:35:59;13.00;;;1.50;;
74059;SDS011;62414;53.436;8.828;2023-09-30T10:38:38;8.77;;;1.93;;
74059;SDS011;62414;53.436;8.828;2023-09-30T10:41:05;11.45;;;1.77;;
74059;SDS011;62414;53.436;8.828;2023-09-30T10:43:32;10.85;;;1.90;;
74059;SDS011;62414;53.436;8.828;2023-09-30T10:45:58;10.27;;;1.80;;
74059;SDS011;62414;53.436;8.828;2023-09-30T10:48:36;7.03;;;1.40;;
74059;SDS011;62414;53.436;8.828;2023-09-30T10:51:12;7.15;;;1.58;;
74059;SDS011;62414;53.436;8.828;2023-09-30T10:53:42;9.43;;;1.40;;
74059;SDS011;62414;53.436;8.828;2023-09-30T10:56:10;10.77;;;1.77;;
74059;SDS011;62414;53.436;8.828;2023-09-30T10:58:42;8.68;;;1.38;;
74059;SDS011;62414;53.436;8.828;2023-09-30T11:01:08;11.60;;;1.40;;
74059;SDS011;62414;53.436;8.828;2023-09-30T11:03:34;13.13;;;1.70;;
74059;SDS011;62414;53.436;8.828;2023-09-30T11:05:59;10.73;;;1.60;;
74059;SDS011;62414;53.436;8.828;2023-09-30T11:08:25;8.20;;;1.37;;
74059;SDS011;62414;53.436;8.828;2023-09-30T11:10:54;9.27;;;1.38;;
74059;SDS011;62414;53.436;8.828;2023-09-30T11:13:21;7.53;;;1.17;;
74059;SDS011;62414;53.436;8.828;2023-09-30T11:15:46;9.80;;;1.40;;
74059;SDS011;62414;53.436;8.828;2023-09-30T11:18:15;9.07;;;1.40;;
74059;SDS011;62414;53.436;8.828;2023-09-30T11:20:41;8.37;;;1.27;;
74059;SDS011;62414;53.436;8.828;2023-09-30T11:23:06;8.32;;;1.20;;
74059;SDS011;62414;53.436;8.828;2023-09-30T11:25:34;11.33;;;1.20;;
74059;SDS011;62414;53.436;8.828;2023-09-30T11:28:12;7.68;;;1.08;;
74059;SDS011;62414;53.436;8.828;2023-09-30T11:33:31;12.40;;;2.33;;
74059;SDS011;62414;53.436;8.828;2023-09-30T11:35:57;7.40;;;1.40;;
74059;SDS011;62414;53.436;8.828;2023-09-30T11:38:24;6.97;;;1.23;;
74059;SDS011;62414;53.436;8.828;2023-09-30T11:40:59;11.20;;;1.27;;
74059;SDS011;62414;53.436;8.828;2023-09-30T11:43:25;9.05;;;1.20;;
74059;SDS011;62414;53.436;8.828;2023-09-30T11:45:50;6.40;;;1.10;;
74059;SDS011;62414;53.436;8.828;2023-09-30T11:48:17;9.23;;;1.43;;
74059;SDS011;62414;53.436;8.828;2023-09-30T11:50:48;7.30;;;1.00;;
74059;SDS011;62414;53.436;8.828;2023-09-30T11:53:16;8.05;;;1.30;;
74059;SDS011;62414;53.436;8.828;2023-09-30T11:55:42;8.07;;;1.23;;
74059;SDS011;62414;53.436;8.828;2023-09-30T11:58:07;10.90;;;1.40;;
74059;SDS011;62414;53.436;8.828;2023-09-30T12:00:33;7.57;;;1.10;;
74059;SDS011;62414;53.436;8.828;2023-09-30T12:02:58;8.05;;;1.10;;
74059;SDS011;62414;53.436;8.828;2023-09-30T12:05:24;6.77;;;1.10;;
74059;SDS011;62414;53.436;8.828;2023-09-30T12:07:51;7.93;;;1.10;;
74059;SDS011;62414;53.436;8.828;2023-09-30T12:10:16;8.27;;;1.20;;
74059;SDS011;62414;53.436;8.828;2023-09-30T12:12:41;7.60;;;1.00;;
74059;SDS011;62414;53.436;8.828;2023-09-30T12:15:07;7.03;;;1.23;;
74059;SDS011;62414;53.436;8.828;2023-09-30T12:17:33;7.65;;;1.00;;
74059;SDS011;62414;53.436;8.828;2023-09-30T12:19:59;5.97;;;0.97;;
74059;SDS011;62414;53.436;8.828;2023-09-30T12:22:24;8.93;;;0.90;;
74059;SDS011;62414;53.436;8.828;2023-09-30T12:24:51;8.30;;;1.20;;
74059;SDS011;62414;53.436;8.828;2023-09-30T12:27:16;5.07;;;0.85;;
74059;SDS011;62414;53.436;8.828;2023-09-30T12:29:42;7.37;;;1.10;;
74059;SDS011;62414;53.436;8.828;2023-09-30T12:32:07;8.07;;;1.20;;
74059;SDS011;62414;53.436;8.828;2023-09-30T12:34:32;7.68;;;1.13;;
74059;SDS011;62414;53.436;8.828;2023-09-30T12:36:58;4.97;;;0.93;;
74059;SDS011;62414;53.436;8.828;2023-09-30T12:39:23;9.87;;;0.93;;
74059;SDS011;62414;53.436;8.828;2023-09-30T12:41:50;8.63;;;1.10;;
74059;SDS011;62414;53.436;8.828;2023-09-30T12:44:16;5.32;;;1.05;;
74059;SDS011;62414;53.436;8.828;2023-09-30T12:46:41;8.20;;;1.03;;
74059;SDS011;62414;53.436;8.828;2023-09-30T12:49:07;7.13;;;0.98;;
74059;SDS011;62414;53.436;8.828;2023-09-30T12:51:32;6.93;;;1.03;;
74059;SDS011;62414;53.436;8.828;2023-09-30T12:53:58;5.70;;;1.00;;
74059;SDS011;62414;53.436;8.828;2023-09-30T12:56:24;5.50;;;0.88;;
74059;SDS011;62414;53.436;8.828;2023-09-30T12:58:51;7.73;;;1.07;;
74059;SDS011;62414;53.436;8.828;2023-09-30T13:01:16;6.50;;;1.02;;
74059;SDS011;62414;53.436;8.828;2023-09-30T13:03:42;5.23;;;0.93;;
74059;SDS011;62414;53.436;8.828;2023-09-30T13:06:07;6.00;;;1.10;;
74059;SDS011;62414;53.436;8.828;2023-09-30T13:08:32;6.47;;;0.90;;
74059;SDS011;62414;53.436;8.828;2023-09-30T13:10:58;3.70;;;0.80;;
74059;SDS011;62414;53.436;8.828;2023-09-30T13:13:23;8.67;;;1.00;;
74059;SDS011;62414;53.436;8.828;2023-09-30T13:15:50;3.80;;;0.93;;
74059;SDS011;62414;53.436;8.828;2023-09-30T13:18:15;7.50;;;1.23;;
74059;SDS011;62414;53.436;8.828;2023-09-30T13:20:41;6.37;;;1.23;;
74059;SDS011;62414;53.436;8.828;2023-09-30T13:23:06;6.47;;;1.10;;
74059;SDS011;62414;53.436;8.828;2023-09-30T13:25:32;7.23;;;1.20;;
74059;SDS011;62414;53.436;8.828;2023-09-30T13:27:57;7.80;;;1.40;;
74059;SDS011;62414;53.436;8.828;2023-09-30T13:30:23;6.67;;;1.20;;
74059;SDS011;62414;53.436;8.828;2023-09-30T13:32:49;5.50;;;1.30;;
74059;SDS011;62414;53.436;8.828;2023-09-30T13:35:15;7.28;;;1.13;;
74059;SDS011;62414;53.436;8.828;2023-09-30T13:37:40;5.60;;;1.10;;
74059;SDS011;62414;53.436;8.828;2023-09-30T13:40:06;8.23;;;1.07;;
74059;SDS011;62414;53.436;8.828;2023-09-30T13:42:32;6.50;;;1.00;;
74059;SDS011;62414;53.436;8.828;2023-09-30T13:44:58;6.73;;;1.10;;
74059;SDS011;62414;53.436;8.828;2023-09-30T13:47:24;4.82;;;0.93;;
74059;SDS011;62414;53.436;8.828;2023-09-30T13:49:51;6.17;;;0.93;;
74059;SDS011;62414;53.436;8.828;2023-09-30T13:52:16;6.13;;;1.05;;
74059;SDS011;62414;53.436;8.828;2023-09-30T13:54:41;5.07;;;0.80;;
74059;SDS011;62414;53.436;8.828;2023-09-30T13:57:07;6.57;;;1.10;;
74059;SDS011;62414;53.436;8.828;2023-09-30T13:59:33;6.23;;;1.17;;
74059;SDS011;62414;53.436;8.828;2023-09-30T14:01:59;4.30;;;0.95;;
74059;SDS011;62414;53.436;8.828;2023-09-30T14:04:24;5.53;;;1.30;;
74059;SDS011;62414;53.436;8.828;2023-09-30T14:06:51;5.57;;;1.30;;
74059;SDS011;62414;53.436;8.828;2023-09-30T14:09:17;5.03;;;1.15;;
74059;SDS011;62414;53.436;8.828;2023-09-30T14:11:42;6.43;;;1.17;;
74059;SDS011;62414;53.436;8.828;2023-09-30T14:14:07;5.50;;;1.25;;
74059;SDS011;62414;53.436;8.828;2023-09-30T14:16:33;8.10;;;1.20;;
74059;SDS011;62414;53.436;8.828;2023-09-30T14:18:58;5.50;;;1.00;;
74059;SDS011;62414;53.436;8.828;2023-09-30T14:21:24;6.17;;;1.10;;
74059;SDS011;62414;53.436;8.828;2023-09-30T14:23:51;5.88;;;1.10;;
74059;SDS011;62414;53.436;8.828;2023-09-30T14:26:16;6.30;;;1.00;;
74059;SDS011;62414;53.436;8.828;2023-09-30T14:28:41;6.78;;;1.17;;
74059;SDS011;62414;53.436;8.828;2023-09-30T14:31:07;6.90;;;1.23;;
74059;SDS011;62414;53.436;8.828;2023-09-30T14:33:32;5.87;;;1.00;;
74059;SDS011;62414;53.436;8.828;2023-09-30T14:35:58;5.35;;;1.02;;
74059;SDS011;62414;53.436;8.828;2023-09-30T14:38:23;5.90;;;1.13;;
74059;SDS011;62414;53.436;8.828;2023-09-30T14:40:50;7.50;;;1.40;;